sensor_id;sensor_type;location;lat;lon;timestamp;pressure;altitude;pressure_sealevel;temperature;humidity
5996;BME280;3026;53.612;7.278;2022-12-16T00:01:05;100807.84;;;1.32;100.00
5996;BME280;3026;53.612;7.278;2022-12-16T00:03:33;100797.94;;;1.32;100.00
5996;BME280;3026;53.612;7.278;2022-12-16T00:06:00;100814.94;;;1.33;100.00
5996;BME280;3026;53.612;7.278;2022-12-16T00:08:31;100805.88;;;1.34;100.00
5996;BME280;3026;53.612;7.278;2022-12-16T00:10:59;100807.84;;;1.32;100.00
5996;BME280;3026;53.612;7.278;2022-12-16T00:13:26;100813.22;;;1.32;100.00
5996;BME280;3026;53.612;7.278;2022-12-16T00:15:53;100802.72;;;1.29;100.00
5996;BME280;3026;53.612;7.278;2022-12-16T00:18:20;100804.63;;;1.27;100.00
5996;BME280;3026;53.612;7.278;2022-12-16T00:20:51;100793.88;;;1.27;100.00
5996;BME280;3026;53.612;7.278;2022-12-16T00:23:19;100785.06;;;1.25;100.00
5996;BME280;3026;53.612;7.278;2022-12-16T00:25:46;100786.78;;;1.26;100.00
5996;BME280;3026;53.612;7.278;2022-12-16T00:28:14;100781.41;;;1.26;100.00
5996;BME280;3026;53.612;7.278;2022-12-16T00:30:41;100783.13;;;1.27;100.00
5996;BME280;3026;53.612;7.278;2022-12-16T00:33:08;100777.75;;;1.27;100.00
5996;BME280;3026;53.612;7.278;2022-12-16T00:35:35;100773.91;;;1.31;100.00
5996;BME280;3026;53.612;7.278;2022-12-16T00:38:04;100772.34;;;1.39;100.00
5996;BME280;3026;53.612;7.278;2022-12-16T00:40:30;100771.50;;;1.50;100.00
5996;BME280;3026;53.612;7.278;2022-12-16T00:42:57;100773.50;;;1.59;100.00
5996;BME280;3026;53.612;7.278;2022-12-16T00:45:24;100774.75;;;1.66;100.00
5996;BME280;3026;53.612;7.278;2022-12-16T00:47:51;100778.81;;;1.72;100.00
5996;BME280;3026;53.612;7.278;2022-12-16T00:50:19;100780.91;;;1.80;100.00
5996;BME280;3026;53.612;7.278;2022-12-16T00:52:46;100777.00;;;1.84;100.00
5996;BME280;3026;53.612;7.278;2022-12-16T00:55:16;100790.97;;;1.89;100.00
5996;BME280;3026;53.612;7.278;2022-12-16T00:57:43;100791.31;;;1.95;100.00
5996;BME280;3026;53.612;7.278;2022-12-16T01:00:12;100776.69;;;1.99;100.00
5996;BME280;3026;53.612;7.278;2022-12-16T01:02:40;100786.09;;;2.05;100.00
5996;BME280;3026;53.612;7.278;2022-12-16T01:05:09;100785.63;;;2.11;100.00
5996;BME280;3026;53.612;7.278;2022-12-16T01:07:36;100782.81;;;2.13;100.00
5996;BME280;3026;53.612;7.278;2022-12-16T01:10:05;100781.47;;;2.18;100.00
5996;BME280;3026;53.612;7.278;2022-12-16T01:12:33;100777.72;;;2.21;100.00
5996;BME280;3026;53.612;7.278;2022-12-16T01:15:02;100771.94;;;2.25;100.00
5996;BME280;3026;53.612;7.278;2022-12-16T01:17:29;100778.78;;;2.29;100.00
5996;BME280;3026;53.612;7.278;2022-12-16T01:19:56;100783.09;;;2.32;100.00
5996;BME280;3026;53.612;7.278;2022-12-16T01:22:23;100778.31;;;2.36;100.00
5996;BME280;3026;53.612;7.278;2022-12-16T01:24:50;100779.78;;;2.40;100.00
5996;BME280;3026;53.612;7.278;2022-12-16T01:27:17;100781.50;;;2.41;100.00
5996;BME280;3026;53.612;7.278;2022-12-16T01:29:45;100784.91;;;2.43;100.00
5996;BME280;3026;53.612;7.278;2022-12-16T01:32:12;100792.53;;;2.49;100.00
5996;BME280;3026;53.612;7.278;2022-12-16T01:34:41;100792.25;;;2.52;100.00
5996;BME280;3026;53.612;7.278;2022-12-16T01:37:10;100802.81;;;2.44;100.00
5996;BME280;3026;53.612;7.278;2022-12-16T01:39:38;100802.28;;;2.27;100.00
5996;BME280;3026;53.612;7.278;2022-12-16T01:42:09;100819.63;;;2.12;100.00
5996;BME280;3026;53.612;7.278;2022-12-16T01:44:40;100819.47;;;2.02;100.00
5996;BME280;3026;53.612;7.278;2022-12-16T01:47:14;100820.41;;;1.90;100.00
5996;BME280;3026;53.612;7.278;2022-12-16T01:49:44;100830.78;;;1.84;100.00
5996;BME280;3026;53.612;7.278;2022-12-16T01:52:16;100835.13;;;1.73;100.00
5996;BME280;3026;53.612;7.278;2022-12-16T01:54:48;100827.78;;;1.64;100.00
5996;BME280;3026;53.612;7.278;2022-12-16T01:57:21;100834.81;;;1.54;100.00
5996;BME280;3026;53.612;7.278;2022-12-16T01:59:53;100849.22;;;1.53;100.00
5996;BME280;3026;53.612;7.278;2022-12-16T02:02:23;100860.19;;;1.50;100.00
5996;BME280;3026;53.612;7.278;2022-12-16T02:04:53;100873.13;;;1.45;100.00
5996;BME280;3026;53.612;7.278;2022-12-16T02:07:37;100876.16;;;1.40;100.00
5996;BME280;3026;53.612;7.278;2022-12-16T02:10:06;100882.81;;;1.35;100.00
5996;BME280;3026;53.612;7.278;2022-12-16T02:12:39;100882.53;;;1.27;100.00
5996;BME280;3026;53.612;7.278;2022-12-16T02:15:24;100889.09;;;1.23;100.00
5996;BME280;3026;53.612;7.278;2022-12-16T02:18:04;100886.09;;;1.14;100.00
5996;BME280;3026;53.612;7.278;2022-12-16T02:21:00;100899.88;;;1.10;100.00
5996;BME280;3026;53.612;7.278;2022-12-16T02:26:52;100905.28;;;0.97;100.00
5996;BME280;3026;53.612;7.278;2022-12-16T02:29:59;100916.22;;;0.94;100.00
5996;BME280;3026;53.612;7.278;2022-12-16T02:32:36;100915.78;;;0.87;100.00
5996;BME280;3026;53.612;7.278;2022-12-16T02:35:11;100926.31;;;0.91;100.00
5996;BME280;3026;53.612;7.278;2022-12-16T02:37:46;100935.34;;;0.90;100.00
5996;BME280;3026;53.612;7.278;2022-12-16T02:40:22;100941.56;;;0.90;100.00
5996;BME280;3026;53.612;7.278;2022-12-16T02:42:56;100939.84;;;0.89;100.00
5996;BME280;3026;53.612;7.278;2022-12-16T02:45:27;100950.69;;;0.87;100.00
5996;BME280;3026;53.612;7.278;2022-12-16T02:47:57;100943.94;;;0.82;100.00
5996;BME280;3026;53.612;7.278;2022-12-16T02:50:27;100954.69;;;0.82;100.00
5996;BME280;3026;53.612;7.278;2022-12-16T02:52:58;100963.66;;;0.81;100.00
5996;BME280;3026;53.612;7.278;2022-12-16T02:55:31;100951.44;;;0.77;100.00
5996;BME280;3026;53.612;7.278;2022-12-16T02:58:09;100949.50;;;0.79;100.00
5996;BME280;3026;53.612;7.278;2022-12-16T03:00:50;100949.31;;;0.82;100.00
5996;BME280;3026;53.612;7.278;2022-12-16T03:03:23;100947.56;;;0.81;100.00
5996;BME280;3026;53.612;7.278;2022-12-16T03:05:54;100941.91;;;0.73;100.00
5996;BME280;3026;53.612;7.278;2022-12-16T03:08:26;100958.97;;;0.72;100.00
5996;BME280;3026;53.612;7.278;2022-12-16T03:10:59;100962.63;;;0.71;100.00
5996;BME280;3026;53.612;7.278;2022-12-16T03:13:29;100967.22;;;0.69;100.00
5996;BME280;3026;53.612;7.278;2022-12-16T03:16:00;100968.41;;;0.65;100.00
5996;BME280;3026;53.612;7.278;2022-12-16T03:18:31;100989.66;;;0.68;100.00
5996;BME280;3026;53.612;7.278;2022-12-16T03:21:01;100987.75;;;0.70;100.00
5996;BME280;3026;53.612;7.278;2022-12-16T03:23:32;100985.81;;;0.72;100.00
5996;BME280;3026;53.612;7.278;2022-12-16T03:26:06;101002.88;;;0.71;100.00
5996;BME280;3026;53.612;7.278;2022-12-16T03:28:41;101004.91;;;0.67;100.00
5996;BME280;3026;53.612;7.278;2022-12-16T03:31:18;101002.22;;;0.67;100.00
5996;BME280;3026;53.612;7.278;2022-12-16T03:33:51;101009.22;;;0.70;100.00
5996;BME280;3026;53.612;7.278;2022-12-16T03:36:23;101007.47;;;0.69;100.00
5996;BME280;3026;53.612;7.278;2022-12-16T03:38:52;101015.53;;;0.69;100.00
5996;BME280;3026;53.612;7.278;2022-12-16T03:41:22;101027.34;;;0.66;100.00
5996;BME280;3026;53.612;7.278;2022-12-16T03:43:50;101036.25;;;0.67;100.00
5996;BME280;3026;53.612;7.278;2022-12-16T03:46:18;101027.66;;;0.62;100.00
5996;BME280;3026;53.612;7.278;2022-12-16T03:48:48;101034.53;;;0.66;100.00
5996;BME280;3026;53.612;7.278;2022-12-16T03:51:15;101037.22;;;0.66;100.00
5996;BME280;3026;53.612;7.278;2022-12-16T03:53:42;101044.28;;;0.67;100.00
5996;BME280;3026;53.612;7.278;2022-12-16T03:56:10;101038.19;;;0.65;100.00
5996;BME280;3026;53.612;7.278;2022-12-16T03:58:38;101050.84;;;0.63;100.00
5996;BME280;3026;53.612;7.278;2022-12-16T04:01:06;101047.41;;;0.61;100.00
5996;BME280;3026;53.612;7.278;2022-12-16T04:03:33;101042.22;;;0.57;100.00
5996;BME280;3026;53.612;7.278;2022-12-16T04:06:02;101048.38;;;0.60;100.00
5996;BME280;3026;53.612;7.278;2022-12-16T04:08:30;101042.22;;;0.57;100.00
5996;BME280;3026;53.612;7.278;2022-12-16T04:10:57;101049.34;;;0.58;100.00
5996;BME280;3026;53.612;7.278;2022-12-16T04:13:41;101053.84;;;0.58;100.00
5996;BME280;3026;53.612;7.278;2022-12-16T04:16:26;101052.97;;;0.57;100.00
5996;BME280;3026;53.612;7.278;2022-12-16T04:19:19;101055.56;;;0.59;100.00
5996;BME280;3026;53.612;7.278;2022-12-16T04:22:10;101064.47;;;0.60;100.00
5996;BME280;3026;53.612;7.278;2022-12-16T04:24:56;101061.78;;;0.60;100.00
5996;BME280;3026;53.612;7.278;2022-12-16T04:27:24;101067.06;;;0.61;100.00
5996;BME280;3026;53.612;7.278;2022-12-16T04:29:52;101072.31;;;0.63;100.00
5996;BME280;3026;53.612;7.278;2022-12-16T04:32:37;101071.34;;;0.64;100.00
5996;BME280;3026;53.612;7.278;2022-12-16T04:35:21;101076.72;;;0.64;100.00
5996;BME280;3026;53.612;7.278;2022-12-16T04:38:08;101074.88;;;0.64;100.00
5996;BME280;3026;53.612;7.278;2022-12-16T04:40:52;101075.00;;;0.63;100.00
5996;BME280;3026;53.612;7.278;2022-12-16T04:43:33;101075.75;;;0.65;100.00
5996;BME280;3026;53.612;7.278;2022-12-16T04:46:17;101074.88;;;0.64;100.00
5996;BME280;3026;53.612;7.278;2022-12-16T04:49:02;101069.84;;;0.60;100.00
5996;BME280;3026;53.612;7.278;2022-12-16T04:51:47;101079.19;;;0.67;100.00
5996;BME280;3026;53.612;7.278;2022-12-16T04:54:32;101089.91;;;0.67;100.00
5996;BME280;3026;53.612;7.278;2022-12-16T04:57:16;101084.75;;;0.64;100.00
5996;BME280;3026;53.612;7.278;2022-12-16T05:00:02;101085.63;;;0.64;100.00
5996;BME280;3026;53.612;7.278;2022-12-16T05:02:49;101084.56;;;0.67;100.00
5996;BME280;3026;53.612;7.278;2022-12-16T05:05:33;101085.41;;;0.67;100.00
5996;BME280;3026;53.612;7.278;2022-12-16T05:08:18;101093.56;;;0.66;100.00
5996;BME280;3026;53.612;7.278;2022-12-16T05:11:04;101091.63;;;0.68;100.00
5996;BME280;3026;53.612;7.278;2022-12-16T05:13:48;101097.00;;;0.68;100.00
5996;BME280;3026;53.612;7.278;2022-12-16T05:16:32;101097.00;;;0.68;100.00
5996;BME280;3026;53.612;7.278;2022-12-16T05:19:17;101103.22;;;0.68;100.00
5996;BME280;3026;53.612;7.278;2022-12-16T05:22:01;101097.22;;;0.65;100.00
5996;BME280;3026;53.612;7.278;2022-12-16T05:24:47;101104.19;;;0.67;100.00
5996;BME280;3026;53.612;7.278;2022-12-16T05:27:33;101113.97;;;0.68;100.00
5996;BME280;3026;53.612;7.278;2022-12-16T05:30:18;101113.97;;;0.68;100.00
5996;BME280;3026;53.612;7.278;2022-12-16T05:33:02;101118.28;;;0.71;100.00
5996;BME280;3026;53.612;7.278;2022-12-16T05:35:46;101120.88;;;0.72;100.00
5996;BME280;3026;53.612;7.278;2022-12-16T05:38:30;101128.81;;;0.74;100.00
5996;BME280;3026;53.612;7.278;2022-12-16T05:41:15;101127.09;;;0.73;100.00
5996;BME280;3026;53.612;7.278;2022-12-16T05:44:01;101139.56;;;0.74;100.00
5996;BME280;3026;53.612;7.278;2022-12-16T05:46:45;101143.19;;;0.73;100.00
5996;BME280;3026;53.612;7.278;2022-12-16T05:49:30;101140.41;;;0.74;100.00
5996;BME280;3026;53.612;7.278;2022-12-16T05:52:14;101148.34;;;0.76;100.00
5996;BME280;3026;53.612;7.278;2022-12-16T05:54:58;101148.34;;;0.76;100.00
5996;BME280;3026;53.612;7.278;2022-12-16T05:57:43;101144.69;;;0.77;100.00
5996;BME280;3026;53.612;7.278;2022-12-16T06:00:28;101146.41;;;0.78;100.00
5996;BME280;3026;53.612;7.278;2022-12-16T06:03:13;101150.06;;;0.77;100.00
5996;BME280;3026;53.612;7.278;2022-12-16T06:05:57;101142.00;;;0.77;100.00
5996;BME280;3026;53.612;7.278;2022-12-16T06:08:41;101144.59;;;0.78;100.00
5996;BME280;3026;53.612;7.278;2022-12-16T06:11:26;101135.91;;;0.75;100.00
5996;BME280;3026;53.612;7.278;2022-12-16T06:14:10;101149.00;;;0.79;100.00
5996;BME280;3026;53.612;7.278;2022-12-16T06:16:55;101162.53;;;0.78;100.00
5996;BME280;3026;53.612;7.278;2022-12-16T06:19:40;101158.88;;;0.79;100.00
5996;BME280;3026;53.612;7.278;2022-12-16T06:22:24;101162.31;;;0.81;100.00
5996;BME280;3026;53.612;7.278;2022-12-16T06:25:09;101165.78;;;0.83;100.00
5996;BME280;3026;53.612;7.278;2022-12-16T06:27:53;101170.19;;;0.84;100.00
5996;BME280;3026;53.612;7.278;2022-12-16T06:30:37;101178.25;;;0.84;100.00
5996;BME280;3026;53.612;7.278;2022-12-16T06:33:23;101172.88;;;0.84;100.00
5996;BME280;3026;53.612;7.278;2022-12-16T06:36:08;101175.56;;;0.84;100.00
5996;BME280;3026;53.612;7.278;2022-12-16T06:38:52;101181.69;;;0.86;100.00
5996;BME280;3026;53.612;7.278;2022-12-16T06:41:37;101185.22;;;0.86;100.00
5996;BME280;3026;53.612;7.278;2022-12-16T06:44:21;101194.13;;;0.87;100.00
5996;BME280;3026;53.612;7.278;2022-12-16T06:47:05;101194.13;;;0.87;100.00
5996;BME280;3026;53.612;7.278;2022-12-16T06:49:51;101200.25;;;0.89;100.00
5996;BME280;3026;53.612;7.278;2022-12-16T06:52:35;101206.59;;;0.88;100.00
5996;BME280;3026;53.612;7.278;2022-12-16T06:55:20;101199.28;;;0.90;100.00
5996;BME280;3026;53.612;7.278;2022-12-16T06:58:04;101217.13;;;0.91;100.00
5996;BME280;3026;53.612;7.278;2022-12-16T07:00:49;101216.16;;;0.92;100.00
5996;BME280;3026;53.612;7.278;2022-12-16T07:03:33;101217.13;;;0.91;100.00
5996;BME280;3026;53.612;7.278;2022-12-16T07:06:30;101224.22;;;0.92;100.00
5996;BME280;3026;53.612;7.278;2022-12-16T07:09:29;101225.19;;;0.91;100.00
5996;BME280;3026;53.612;7.278;2022-12-16T07:12:13;101233.22;;;0.91;100.00
5996;BME280;3026;53.612;7.278;2022-12-16T07:14:58;101237.63;;;0.92;100.00
5996;BME280;3026;53.612;7.278;2022-12-16T07:17:43;101248.38;;;0.92;100.00
5996;BME280;3026;53.612;7.278;2022-12-16T07:20:28;101252.81;;;0.93;100.00
5996;BME280;3026;53.612;7.278;2022-12-16T07:23:14;101259.13;;;0.92;100.00
5996;BME280;3026;53.612;7.278;2022-12-16T07:25:58;101254.72;;;0.91;100.00
5996;BME280;3026;53.612;7.278;2022-12-16T07:28:42;101252.03;;;0.91;100.00
5996;BME280;3026;53.612;7.278;2022-12-16T07:31:26;101267.16;;;0.92;100.00
5996;BME280;3026;53.612;7.278;2022-12-16T07:34:11;101274.38;;;0.92;100.00
5996;BME280;3026;53.612;7.278;2022-12-16T07:36:55;101278.13;;;0.89;100.00
5996;BME280;3026;53.612;7.278;2022-12-16T07:39:41;101276.41;;;0.88;100.00
5996;BME280;3026;53.612;7.278;2022-12-16T07:42:26;101279.94;;;0.88;100.00
5996;BME280;3026;53.612;7.278;2022-12-16T07:45:10;101286.94;;;0.91;100.00
5996;BME280;3026;53.612;7.278;2022-12-16T07:47:55;101289.63;;;0.91;100.00
5996;BME280;3026;53.612;7.278;2022-12-16T07:50:40;101297.50;;;0.94;100.00
5996;BME280;3026;53.612;7.278;2022-12-16T07:53:24;101306.31;;;0.96;100.00
5996;BME280;3026;53.612;7.278;2022-12-16T07:56:10;101306.31;;;0.96;100.00
5996;BME280;3026;53.612;7.278;2022-12-16T07:58:54;101311.69;;;0.96;100.00
5996;BME280;3026;53.612;7.278;2022-12-16T08:01:39;101317.91;;;0.97;100.00
5996;BME280;3026;53.612;7.278;2022-12-16T08:04:23;101318.44;;;1.16;100.00
5996;BME280;3026;53.612;7.278;2022-12-16T08:07:07;101327.19;;;1.05;100.00
5996;BME280;3026;53.612;7.278;2022-12-16T08:09:51;101322.00;;;1.02;100.00
5996;BME280;3026;53.612;7.278;2022-12-16T08:12:37;101339.84;;;1.03;100.00
5996;BME280;3026;53.612;7.278;2022-12-16T08:15:22;101336.22;;;1.04;100.00
5996;BME280;3026;53.612;7.278;2022-12-16T08:18:06;101337.94;;;1.05;100.00
5996;BME280;3026;53.612;7.278;2022-12-16T08:20:50;101342.34;;;1.06;100.00
5996;BME280;3026;53.612;7.278;2022-12-16T08:23:31;101350.41;;;1.06;100.00
5996;BME280;3026;53.612;7.278;2022-12-16T08:26:16;101357.50;;;1.07;100.00
5996;BME280;3026;53.612;7.278;2022-12-16T08:29:02;101355.78;;;1.06;100.00
5996;BME280;3026;53.612;7.278;2022-12-16T08:31:46;101364.50;;;1.10;100.00
5996;BME280;3026;53.612;7.278;2022-12-16T08:34:31;101361.81;;;1.10;100.00
5996;BME280;3026;53.612;7.278;2022-12-16T08:37:15;101364.38;;;1.11;100.00
5996;BME280;3026;53.612;7.278;2022-12-16T08:40:00;101364.59;;;1.08;100.00
5996;BME280;3026;53.612;7.278;2022-12-16T08:42:44;101370.81;;;1.09;100.00
5996;BME280;3026;53.612;7.278;2022-12-16T08:45:30;101372.53;;;1.10;100.00
5996;BME280;3026;53.612;7.278;2022-12-16T08:48:14;101371.69;;;1.09;100.00
5996;BME280;3026;53.612;7.278;2022-12-16T08:51:00;101381.47;;;1.10;100.00
5996;BME280;3026;53.612;7.278;2022-12-16T08:53:44;101390.47;;;1.09;100.00
5996;BME280;3026;53.612;7.278;2022-12-16T08:56:29;101388.75;;;1.08;100.00
5996;BME280;3026;53.612;7.278;2022-12-16T08:59:13;101393.16;;;1.09;100.00
5996;BME280;3026;53.612;7.278;2022-12-16T09:01:59;101393.16;;;1.09;100.00
5996;BME280;3026;53.612;7.278;2022-12-16T09:04:43;101394.78;;;1.12;100.00
5996;BME280;3026;53.612;7.278;2022-12-16T09:07:27;101402.94;;;1.10;100.00
5996;BME280;3026;53.612;7.278;2022-12-16T09:10:12;101412.72;;;1.11;100.00
5996;BME280;3026;53.612;7.278;2022-12-16T09:13:04;101409.09;;;1.12;100.00
5996;BME280;3026;53.612;7.278;2022-12-16T09:15:48;101407.34;;;1.11;100.00
5996;BME280;3026;53.612;7.278;2022-12-16T09:18:34;101400.47;;;1.07;100.00
5996;BME280;3026;53.612;7.278;2022-12-16T09:21:18;101407.56;;;1.08;100.00
5996;BME280;3026;53.612;7.278;2022-12-16T09:24:03;101418.75;;;1.15;100.00
5996;BME280;3026;53.612;7.278;2022-12-16T09:26:47;101428.84;;;1.11;100.00
5996;BME280;3026;53.612;7.278;2022-12-16T09:29:32;101433.03;;;1.15;100.00
5996;BME280;3026;53.612;7.278;2022-12-16T09:32:16;101431.25;;;1.16;100.00
5996;BME280;3026;53.612;7.278;2022-12-16T09:35:02;101435.75;;;1.15;100.00
5996;BME280;3026;53.612;7.278;2022-12-16T09:37:46;101434.59;;;1.20;100.00
5996;BME280;3026;53.612;7.278;2022-12-16T09:40:31;101444.38;;;1.21;100.00
5996;BME280;3026;53.612;7.278;2022-12-16T09:43:28;101440.84;;;1.20;100.00
5996;BME280;3026;53.612;7.278;2022-12-16T09:46:20;101442.47;;;1.23;100.00
5996;BME280;3026;53.612;7.278;2022-12-16T09:49:12;101446.09;;;1.22;100.00
5996;BME280;3026;53.612;7.278;2022-12-16T09:52:01;101446.09;;;1.22;100.00
5996;BME280;3026;53.612;7.278;2022-12-16T09:54:46;101454.91;;;1.24;100.00
5996;BME280;3026;53.612;7.278;2022-12-16T09:57:35;101465.66;;;1.24;100.00
5996;BME280;3026;53.612;7.278;2022-12-16T10:00:21;101472.75;;;1.25;100.00
5996;BME280;3026;53.612;7.278;2022-12-16T10:03:14;101472.88;;;1.23;100.00
5996;BME280;3026;53.612;7.278;2022-12-16T10:06:02;101472.97;;;1.22;100.00
5996;BME280;3026;53.612;7.278;2022-12-16T10:08:55;101475.44;;;1.25;100.00
5996;BME280;3026;53.612;7.278;2022-12-16T10:11:47;101477.38;;;1.23;100.00
5996;BME280;3026;53.612;7.278;2022-12-16T10:14:38;101481.59;;;1.27;100.00
5996;BME280;3026;53.612;7.278;2022-12-16T10:17:25;101477.97;;;1.28;100.00
5996;BME280;3026;53.612;7.278;2022-12-16T10:20:14;101481.41;;;1.30;100.00
5996;BME280;3026;53.612;7.278;2022-12-16T10:23:02;101494.75;;;1.31;100.00
5996;BME280;3026;53.612;7.278;2022-12-16T10:25:55;101484.88;;;1.32;100.00
5996;BME280;3026;53.612;7.278;2022-12-16T10:28:44;101488.31;;;1.34;100.00
5996;BME280;3026;53.612;7.278;2022-12-16T10:31:29;101487.25;;;1.36;100.00
5996;BME280;3026;53.612;7.278;2022-12-16T10:34:15;101495.19;;;1.38;100.00
5996;BME280;3026;53.612;7.278;2022-12-16T10:37:01;101495.19;;;1.38;100.00
5996;BME280;3026;53.612;7.278;2022-12-16T10:39:48;101496.94;;;1.39;100.00
5996;BME280;3026;53.612;7.278;2022-12-16T10:42:36;101502.13;;;1.42;100.00
5996;BME280;3026;53.612;7.278;2022-12-16T10:45:27;101490.53;;;1.41;100.00
5996;BME280;3026;53.612;7.278;2022-12-16T10:48:13;101493.09;;;1.43;100.00
5996;BME280;3026;53.612;7.278;2022-12-16T10:51:16;101498.47;;;1.43;100.00
5996;BME280;3026;53.612;7.278;2022-12-16T10:54:18;101500.41;;;1.41;100.00
5996;BME280;3026;53.612;7.278;2022-12-16T10:57:08;101501.94;;;1.45;100.00
5996;BME280;3026;53.612;7.278;2022-12-16T11:00:10;101512.47;;;1.48;100.00
5996;BME280;3026;53.612;7.278;2022-12-16T11:02:54;101514.19;;;1.49;100.00
5996;BME280;3026;53.612;7.278;2022-12-16T11:05:39;101506.06;;;1.51;100.00
5996;BME280;3026;53.612;7.278;2022-12-16T11:08:26;101510.53;;;1.50;100.00
5996;BME280;3026;53.612;7.278;2022-12-16T11:11:19;101513.63;;;1.58;100.00
5996;BME280;3026;53.612;7.278;2022-12-16T11:14:15;101516.88;;;1.63;100.00
5996;BME280;3026;53.612;7.278;2022-12-16T11:17:18;101516.69;;;1.66;100.00
5996;BME280;3026;53.612;7.278;2022-12-16T11:20:12;101516.88;;;1.63;100.00
5996;BME280;3026;53.612;7.278;2022-12-16T11:23:20;101517.75;;;1.64;100.00
5996;BME280;3026;53.612;7.278;2022-12-16T11:26:08;101515.16;;;1.62;100.00
5996;BME280;3026;53.612;7.278;2022-12-16T11:29:08;101518.59;;;1.64;100.00
5996;BME280;3026;53.612;7.278;2022-12-16T11:31:57;101511.31;;;1.66;100.00
5996;BME280;3026;53.612;7.278;2022-12-16T11:34:49;101511.19;;;1.68;100.00
5996;BME280;3026;53.612;7.278;2022-12-16T11:37:37;101514.97;;;1.65;100.00
5996;BME280;3026;53.612;7.278;2022-12-16T11:40:23;101516.03;;;1.63;100.00
5996;BME280;3026;53.612;7.278;2022-12-16T11:43:17;101515.91;;;1.64;100.00
5996;BME280;3026;53.612;7.278;2022-12-16T11:46:04;101522.25;;;1.63;100.00
5996;BME280;3026;53.612;7.278;2022-12-16T11:48:55;101522.44;;;1.60;100.00
5996;BME280;3026;53.612;7.278;2022-12-16T11:51:48;101515.53;;;1.56;100.00
5996;BME280;3026;53.612;7.278;2022-12-16T11:54:37;101518.44;;;1.53;100.00
5996;BME280;3026;53.612;7.278;2022-12-16T11:57:42;101515.84;;;1.52;100.00
5996;BME280;3026;53.612;7.278;2022-12-16T12:00:27;101514.78;;;1.54;100.00
5996;BME280;3026;53.612;7.278;2022-12-16T12:03:15;101522.84;;;1.54;100.00
5996;BME280;3026;53.612;7.278;2022-12-16T12:06:08;101522.84;;;1.54;100.00
5996;BME280;3026;53.612;7.278;2022-12-16T12:09:01;101524.56;;;1.55;100.00
5996;BME280;3026;53.612;7.278;2022-12-16T12:11:52;101528.31;;;1.53;100.00
5996;BME280;3026;53.612;7.278;2022-12-16T12:14:43;101530.16;;;1.52;100.00
5996;BME280;3026;53.612;7.278;2022-12-16T12:17:34;101523.44;;;1.45;100.00
5996;BME280;3026;53.612;7.278;2022-12-16T12:20:36;101540.03;;;1.52;100.00
5996;BME280;3026;53.612;7.278;2022-12-16T12:23:34;101532.25;;;1.47;100.00
5996;BME280;3026;53.612;7.278;2022-12-16T12:26:26;101540.31;;;1.47;100.00
5996;BME280;3026;53.612;7.278;2022-12-16T12:29:18;101535.31;;;1.55;100.00
5996;BME280;3026;53.612;7.278;2022-12-16T12:32:10;101539.72;;;1.56;100.00
5996;BME280;3026;53.612;7.278;2022-12-16T12:35:04;101533.41;;;1.57;100.00
5996;BME280;3026;53.612;7.278;2022-12-16T12:37:56;101542.41;;;1.56;100.00
5996;BME280;3026;53.612;7.278;2022-12-16T12:40:47;101552.97;;;1.59;100.00
5996;BME280;3026;53.612;7.278;2022-12-16T12:43:45;101552.78;;;1.62;100.00
5996;BME280;3026;53.612;7.278;2022-12-16T12:46:38;101557.38;;;1.60;100.00
5996;BME280;3026;53.612;7.278;2022-12-16T12:49:29;101562.66;;;1.62;100.00
5996;BME280;3026;53.612;7.278;2022-12-16T12:52:29;101557.38;;;1.60;100.00
5996;BME280;3026;53.612;7.278;2022-12-16T12:55:20;101559.03;;;1.63;100.00
5996;BME280;3026;53.612;7.278;2022-12-16T12:58:08;101559.78;;;1.65;100.00
5996;BME280;3026;53.612;7.278;2022-12-16T13:00:56;101554.53;;;1.63;100.00
5996;BME280;3026;53.612;7.278;2022-12-16T13:03:43;101556.03;;;1.67;100.00
5996;BME280;3026;53.612;7.278;2022-12-16T13:06:29;101553.91;;;1.72;100.00
5996;BME280;3026;53.612;7.278;2022-12-16T13:09:24;101550.47;;;1.70;100.00
5996;BME280;3026;53.612;7.278;2022-12-16T13:12:23;101563.13;;;1.68;100.00
5996;BME280;3026;53.612;7.278;2022-12-16T13:15:10;101564.88;;;1.69;100.00
5996;BME280;3026;53.612;7.278;2022-12-16T13:18:31;101568.53;;;1.68;100.00
5996;BME280;3026;53.612;7.278;2022-12-16T13:21:43;101573.69;;;1.71;100.00
5996;BME280;3026;53.612;7.278;2022-12-16T13:24:40;101573.69;;;1.71;100.00
5996;BME280;3026;53.612;7.278;2022-12-16T13:27:27;101575.41;;;1.72;100.00
5996;BME280;3026;53.612;7.278;2022-12-16T13:30:22;101582.53;;;1.73;100.00
5996;BME280;3026;53.612;7.278;2022-12-16T13:33:29;101587.03;;;1.73;100.00
5996;BME280;3026;53.612;7.278;2022-12-16T13:36:16;101589.66;;;1.74;100.00
5996;BME280;3026;53.612;7.278;2022-12-16T13:39:21;101591.38;;;1.75;100.00
5996;BME280;3026;53.612;7.278;2022-12-16T13:42:47;101585.91;;;1.77;100.00
5996;BME280;3026;53.612;7.278;2022-12-16T13:45:34;101577.16;;;1.73;100.00
5996;BME280;3026;53.612;7.278;2022-12-16T13:48:36;101579.84;;;1.73;100.00
5996;BME280;3026;53.612;7.278;2022-12-16T13:51:55;101588.31;;;1.67;100.00
5996;BME280;3026;53.612;7.278;2022-12-16T13:54:43;101591.28;;;1.63;100.00
5996;BME280;3026;53.612;7.278;2022-12-16T13:57:35;101597.69;;;1.60;100.00
5996;BME280;3026;53.612;7.278;2022-12-16T14:00:23;101600.69;;;1.56;100.00
5996;BME280;3026;53.612;7.278;2022-12-16T14:03:12;101609.06;;;1.51;100.00
5996;BME280;3026;53.612;7.278;2022-12-16T14:06:00;101611.34;;;1.43;100.00
5996;BME280;3026;53.612;7.278;2022-12-16T14:08:45;101618.44;;;1.44;100.00
5996;BME280;3026;53.612;7.278;2022-12-16T14:11:39;101611.53;;;1.40;100.00
5996;BME280;3026;53.612;7.278;2022-12-16T14:14:31;101625.91;;;1.39;100.00
5996;BME280;3026;53.612;7.278;2022-12-16T14:17:21;101624.97;;;1.40;100.00
5996;BME280;3026;53.612;7.278;2022-12-16T14:20:13;101625.91;;;1.39;100.00
5996;BME280;3026;53.612;7.278;2022-12-16T14:23:21;101626.13;;;1.36;100.00
5996;BME280;3026;53.612;7.278;2022-12-16T14:26:12;101637.06;;;1.33;100.00
5996;BME280;3026;53.612;7.278;2022-12-16T14:28:56;101641.56;;;1.32;100.00
5996;BME280;3026;53.612;7.278;2022-12-16T14:31:43;101645.88;;;1.35;100.00
5996;BME280;3026;53.612;7.278;2022-12-16T14:34:29;101641.56;;;1.32;100.00
5996;BME280;3026;53.612;7.278;2022-12-16T14:37:16;101647.81;;;1.33;100.00